createdAt,value
2023-01-15T00:00:00.131Z,1.4
2023-01-15T00:05:00.101Z,1
2023-01-15T00:10:00.193Z,0.8
2023-01-15T00:15:00.136Z,2.1
2023-01-15T00:20:00.118Z,1
2023-01-15T00:25:00.136Z,1.7
2023-01-15T00:30:00.138Z,1.7
2023-01-15T00:35:00.114Z,2.8
2023-01-15T00:40:00.117Z,0.9
2023-01-15T00:45:00.128Z,1
2023-01-15T00:50:00.166Z,0.6
2023-01-15T00:55:00.110Z,1.1
2023-01-15T01:00:00.163Z,1.1
2023-01-15T01:05:00.126Z,1.3
2023-01-15T01:10:00.130Z,0.6
2023-01-15T01:15:00.133Z,0.8
2023-01-15T01:20:00.107Z,0.5
2023-01-15T01:25:00.115Z,1
2023-01-15T01:30:00.142Z,1
2023-01-15T01:35:00.117Z,0.8
2023-01-15T01:40:00.099Z,0.6
2023-01-15T01:45:00.148Z,0.5
2023-01-15T01:50:00.125Z,0.9
2023-01-15T01:55:00.118Z,1.7
2023-01-15T02:00:00.139Z,1.7
2023-01-15T02:05:00.166Z,1.2
2023-01-15T02:10:00.167Z,1.2
2023-01-15T02:15:00.134Z,0.8
2023-01-15T02:20:00.123Z,0.5
2023-01-15T02:25:00.153Z,0.7
2023-01-15T02:30:00.147Z,0.7
2023-01-15T02:35:00.767Z,1.7
2023-01-15T02:40:00.120Z,0.9
2023-01-15T02:45:00.130Z,0.6
2023-01-15T02:50:00.160Z,2.8
2023-01-15T02:55:00.113Z,1
2023-01-15T03:00:00.105Z,1
2023-01-15T03:05:00.120Z,1.9
2023-01-15T03:10:00.107Z,0.8
2023-01-15T03:15:00.150Z,1.1
2023-01-15T03:20:00.127Z,0.6
2023-01-15T03:25:00.133Z,1.5
2023-01-15T03:30:00.125Z,1.5
2023-01-15T03:35:00.120Z,0.8
2023-01-15T03:40:00.124Z,1.2
2023-01-15T03:45:00.131Z,0.6
2023-01-15T03:50:00.095Z,0.6
2023-01-15T03:55:00.161Z,3
2023-01-15T04:00:00.137Z,3
2023-01-15T04:05:00.108Z,1.4
2023-01-15T04:10:00.100Z,0.6
2023-01-15T04:15:00.132Z,0.5
2023-01-15T04:20:00.124Z,0.5
2023-01-15T04:25:00.122Z,0.3
2023-01-15T04:30:00.121Z,0.3
2023-01-15T04:35:00.114Z,0.2
2023-01-15T04:40:00.117Z,0.3
2023-01-15T04:45:00.106Z,0.1
2023-01-15T04:50:00.196Z,0.2
2023-01-15T04:55:00.122Z,0.1
2023-01-15T05:00:00.171Z,0.1
2023-01-15T05:05:00.111Z,0.2
2023-01-15T05:10:00.134Z,0.2
2023-01-15T05:15:00.109Z,0.2
2023-01-15T05:20:00.102Z,0.2
2023-01-15T05:25:00.132Z,0.2
2023-01-15T05:30:00.126Z,0.2
2023-01-15T05:35:00.116Z,0.2
2023-01-15T05:40:00.133Z,0.8
2023-01-15T05:45:00.123Z,0.2
2023-01-15T05:50:00.128Z,0.2
2023-01-15T05:55:00.151Z,0.1
2023-01-15T06:00:00.116Z,0.1
2023-01-15T06:05:00.118Z,0.1
2023-01-15T06:10:00.111Z,0.2
2023-01-15T06:15:00.119Z,0.9
2023-01-15T06:20:00.117Z,0.4
2023-01-15T06:25:00.131Z,1.9
2023-01-15T06:30:00.106Z,1.9
2023-01-15T06:35:00.121Z,2.1
2023-01-15T06:40:00.125Z,1.3
2023-01-15T06:45:00.122Z,1.2
2023-01-15T06:50:00.100Z,1.4
2023-01-15T06:55:00.108Z,0.4
2023-01-15T07:00:00.125Z,0.4
2023-01-15T07:05:00.118Z,1
2023-01-15T07:10:00.125Z,0.8
2023-01-15T07:15:00.133Z,2.3
2023-01-15T07:20:00.111Z,2.8
2023-01-15T07:25:00.126Z,1.2
2023-01-15T07:30:00.141Z,1.2
2023-01-15T07:35:00.119Z,1
2023-01-15T07:40:00.134Z,0.9
2023-01-15T07:45:00.118Z,2
2023-01-15T07:50:00.119Z,0.9
2023-01-15T07:55:00.093Z,0.5
2023-01-15T08:00:00.097Z,0.5
2023-01-15T08:05:00.114Z,0.5
2023-01-15T08:10:00.133Z,0.2
2023-01-15T08:15:00.117Z,0.5
2023-01-15T08:20:00.128Z,0.5
2023-01-15T08:25:00.116Z,0.7
2023-01-15T08:30:00.126Z,0.7
2023-01-15T08:35:00.106Z,1.5
2023-01-15T08:40:00.144Z,0.6
2023-01-15T08:45:00.113Z,0.9
2023-01-15T08:50:00.163Z,0.9
2023-01-15T08:55:00.116Z,1.4
2023-01-15T09:00:00.138Z,1.4
2023-01-15T09:05:00.186Z,0.2
2023-01-15T09:10:00.128Z,0.4
2023-01-15T09:15:02.180Z,0.5
2023-01-15T09:20:00.178Z,0.5
2023-01-15T09:25:00.115Z,0.4
2023-01-15T09:30:00.109Z,0.4
2023-01-15T09:35:00.128Z,0.3
2023-01-15T09:40:00.140Z,0.4
2023-01-15T09:45:00.146Z,0.5
2023-01-15T09:50:00.148Z,0.3
2023-01-15T09:55:00.094Z,0.9
2023-01-15T10:00:00.135Z,0.9
2023-01-15T10:05:00.118Z,0.4
2023-01-15T10:10:00.126Z,0.6
2023-01-15T10:15:00.112Z,1.1
2023-01-15T10:20:00.112Z,0.9
2023-01-15T10:25:00.122Z,1
2023-01-15T10:30:00.146Z,1
2023-01-15T10:35:00.098Z,0.3
2023-01-15T10:40:00.105Z,0.3
2023-01-15T10:45:00.145Z,0.2
2023-01-15T10:50:00.110Z,0.4
2023-01-15T10:55:00.095Z,0.3
2023-01-15T11:00:00.140Z,0.3
2023-01-15T11:05:00.111Z,0.5
2023-01-15T11:10:00.111Z,0.3
2023-01-15T11:15:00.116Z,0.3
2023-01-15T11:20:00.103Z,0.5
2023-01-15T11:25:00.129Z,1
2023-01-15T11:30:00.124Z,1
2023-01-15T11:35:00.112Z,0.6
2023-01-15T11:40:00.129Z,0.7
2023-01-15T11:45:00.104Z,0.4
2023-01-15T11:50:00.123Z,0.5
2023-01-15T11:55:00.113Z,1.2
2023-01-15T12:00:00.128Z,1.2
2023-01-15T12:05:00.110Z,0.6
2023-01-15T12:10:00.129Z,1.2
2023-01-15T12:15:00.128Z,0.6
2023-01-15T12:20:00.122Z,0.5
2023-01-15T12:25:00.121Z,0.7
2023-01-15T12:30:00.102Z,0.7
2023-01-15T12:35:00.110Z,0.4
2023-01-15T12:40:00.135Z,0.7
2023-01-15T12:45:00.148Z,1.2
2023-01-15T12:50:00.107Z,1.8
2023-01-15T12:55:00.134Z,1.8
2023-01-15T13:00:00.147Z,1.8
2023-01-15T13:05:00.116Z,0.9
2023-01-15T13:10:00.106Z,0.8
2023-01-15T13:15:00.115Z,0.8
2023-01-15T13:20:00.268Z,1.6
2023-01-15T13:25:00.149Z,0.6
2023-01-15T13:30:00.138Z,0.6
2023-01-15T13:35:00.143Z,0.6
2023-01-15T13:40:00.102Z,2.9
2023-01-15T13:45:00.129Z,1.2
2023-01-15T13:50:00.112Z,4.7
2023-01-15T13:55:00.168Z,1.4
2023-01-15T14:00:00.103Z,1.4
2023-01-15T14:05:00.101Z,1.1
2023-01-15T14:10:00.132Z,1.5
2023-01-15T15:00:00.162Z,7.1
2023-01-15T15:05:00.113Z,1.6
2023-01-15T15:10:00.150Z,1.8
2023-01-15T15:15:00.131Z,1.2
2023-01-15T15:20:00.160Z,3.9
2023-01-15T15:25:00.110Z,3.4
2023-01-15T15:30:00.118Z,3.4
2023-01-15T15:35:00.133Z,2.1
2023-01-15T15:40:00.167Z,1.6
2023-01-15T15:45:00.156Z,4.4
2023-01-15T15:50:00.282Z,4.4
2023-01-15T15:55:00.142Z,1.8
2023-01-15T16:00:00.283Z,1.8
2023-01-15T16:05:00.123Z,5.4
2023-01-15T16:10:00.176Z,5.3
2023-01-15T16:15:00.174Z,3.3
2023-01-15T16:20:00.179Z,2.6
2023-01-15T16:25:00.150Z,2.8
2023-01-15T16:30:00.110Z,2.8
2023-01-15T16:35:00.158Z,2.5
2023-01-15T16:40:00.150Z,7.1
2023-01-15T16:45:00.143Z,2.5
2023-01-15T16:50:00.103Z,4.6
2023-01-15T16:55:00.144Z,3.9
2023-01-15T17:00:00.137Z,3.9
2023-01-15T17:05:00.213Z,3.6
2023-01-15T17:10:00.136Z,3.4
2023-01-15T17:15:00.136Z,5.2
2023-01-15T17:20:00.123Z,4
2023-01-15T17:25:00.137Z,5.8
2023-01-15T17:30:00.116Z,5.8
2023-01-15T17:35:00.123Z,4.3
2023-01-15T17:40:00.153Z,4.7
2023-01-15T17:45:00.176Z,3.1
2023-01-15T17:50:00.098Z,4.4
2023-01-15T17:55:00.094Z,2.2
2023-01-15T18:00:00.112Z,2.2
2023-01-15T18:05:00.111Z,3.6
2023-01-15T18:10:00.098Z,5.4
2023-01-15T18:15:00.137Z,2.4
2023-01-15T18:20:00.144Z,2.7
2023-01-15T18:25:00.092Z,3.4
2023-01-15T18:30:00.127Z,3.4
2023-01-15T18:35:00.091Z,5.2
2023-01-15T18:40:00.111Z,8.9
2023-01-15T18:45:00.133Z,3.5
2023-01-15T18:50:00.117Z,4.1
2023-01-15T18:55:00.091Z,3.4
2023-01-15T19:00:00.142Z,3.4
2023-01-15T19:05:00.110Z,3.6
2023-01-15T19:10:00.101Z,3.4
2023-01-15T19:15:00.140Z,3.8
2023-01-15T19:20:00.121Z,2.8
2023-01-15T19:25:00.126Z,3.5
2023-01-15T19:30:00.230Z,3.5
2023-01-15T19:35:00.098Z,2.7
2023-01-15T19:40:00.120Z,5.9
2023-01-15T19:45:00.126Z,3.3
2023-01-15T19:50:00.124Z,7.3
2023-01-15T19:55:00.096Z,2.6
2023-01-15T20:00:00.095Z,2.6
2023-01-15T20:05:00.127Z,1.8
2023-01-15T20:10:00.129Z,3.6
2023-01-15T20:15:00.115Z,5.4
2023-01-15T20:20:00.105Z,7.5
2023-01-15T20:25:00.092Z,4.5
2023-01-15T20:30:00.138Z,4.5
2023-01-15T20:35:00.110Z,5.8
2023-01-15T20:40:00.123Z,4.4
2023-01-15T20:45:00.117Z,4.1
2023-01-15T20:50:00.145Z,2.9
2023-01-15T20:55:00.145Z,3.2
2023-01-15T21:00:00.116Z,3.2
2023-01-15T21:05:00.103Z,3.5
2023-01-15T21:10:00.104Z,1.8
2023-01-15T21:15:00.123Z,5.3
2023-01-15T21:20:00.126Z,2.5
2023-01-15T21:25:00.279Z,4.9
2023-01-15T21:30:00.149Z,4.9
2023-01-15T21:35:00.118Z,3.7
2023-01-15T21:40:00.130Z,4.7
2023-01-15T21:45:00.130Z,2.5
2023-01-15T21:50:00.105Z,6.2
2023-01-15T21:55:00.124Z,8.7
2023-01-15T22:00:00.152Z,8.7
2023-01-15T22:05:00.122Z,4.4
2023-01-15T22:10:00.123Z,3.8
2023-01-15T22:15:00.126Z,3.1
2023-01-15T22:20:00.124Z,3.7
2023-01-15T22:25:00.132Z,3
2023-01-15T22:30:00.138Z,3
2023-01-15T22:35:00.171Z,4.8
2023-01-15T22:40:00.142Z,4.9
2023-01-15T22:45:00.208Z,2.5
2023-01-15T22:50:00.110Z,3.3
2023-01-15T22:55:00.130Z,3.3
2023-01-15T23:00:00.121Z,3.3
2023-01-15T23:05:00.128Z,3.4
2023-01-15T23:10:00.104Z,4.6
2023-01-15T23:15:00.112Z,6.7
2023-01-15T23:20:00.131Z,2.2
2023-01-15T23:25:00.122Z,3.6
2023-01-15T23:30:00.124Z,3.6
2023-01-15T23:35:00.100Z,4
2023-01-15T23:40:00.186Z,2.3
2023-01-15T23:45:00.149Z,5.1
2023-01-15T23:50:00.142Z,3
2023-01-15T23:55:00.132Z,4
